createdAt,value
2019-03-11T00:02:25.670Z,19.07
2019-03-11T00:04:57.061Z,20.90
2019-03-11T00:07:28.473Z,20.83
2019-03-11T00:09:59.995Z,21.30
2019-03-11T00:12:31.454Z,21.23
2019-03-11T00:15:02.784Z,22.27
2019-03-11T00:17:34.274Z,19.30
2019-03-11T00:20:06.105Z,16.63
2019-03-11T00:22:37.611Z,15.87
2019-03-11T00:25:09.195Z,12.43
2019-03-11T00:27:40.626Z,12.00
2019-03-11T00:30:12.451Z,10.63
2019-03-11T00:32:43.880Z,10.10
2019-03-11T00:35:15.305Z,9.23
2019-03-11T00:37:46.751Z,8.80
2019-03-11T00:40:18.332Z,8.90
2019-03-11T00:42:49.811Z,8.97
2019-03-11T00:45:21.158Z,9.60
2019-03-11T00:48:01.466Z,7.47
2019-03-11T00:50:26.210Z,8.27
2019-03-11T00:52:57.535Z,7.97
2019-03-11T00:55:28.983Z,7.33
2019-03-11T00:58:00.363Z,7.60
2019-03-11T01:00:34.273Z,6.90
2019-03-11T01:03:05.951Z,5.80
2019-03-11T01:05:37.407Z,5.50
2019-03-11T01:08:09.425Z,6.33
2019-03-11T01:10:40.861Z,5.83
2019-03-11T01:13:12.183Z,5.40
2019-03-11T01:15:43.635Z,6.23
2019-03-11T01:18:14.961Z,6.70
2019-03-11T01:20:46.424Z,6.83
2019-03-11T01:23:18.320Z,6.20
2019-03-11T01:25:49.860Z,6.60
2019-03-11T01:28:21.216Z,6.03
2019-03-11T01:30:52.819Z,6.17
2019-03-11T01:33:24.187Z,6.53
2019-03-11T01:35:55.624Z,6.90
2019-03-11T01:38:27.039Z,7.63
2019-03-11T01:40:58.422Z,10.17
2019-03-11T01:43:30.462Z,13.47
2019-03-11T01:46:02.430Z,14.40
2019-03-11T01:48:34.340Z,15.97
2019-03-11T01:51:06.232Z,17.40
2019-03-11T01:53:38.091Z,15.37
2019-03-11T01:56:10.000Z,16.83
2019-03-11T01:58:42.441Z,15.23
2019-03-11T02:01:14.249Z,18.97
2019-03-11T02:03:45.948Z,14.67
2019-03-11T02:06:17.828Z,16.17
2019-03-11T02:08:49.745Z,11.13
2019-03-11T02:11:21.622Z,6.83
2019-03-11T02:13:53.522Z,5.97
2019-03-11T02:16:25.578Z,5.03
2019-03-11T02:18:57.344Z,4.90
2019-03-11T02:21:29.244Z,4.83
2019-03-11T02:24:01.554Z,4.50
2019-03-11T02:26:33.489Z,5.30
2019-03-11T02:29:05.296Z,5.50
2019-03-11T02:31:37.485Z,4.80
2019-03-11T02:34:09.029Z,5.97
2019-03-11T02:36:40.848Z,6.13
2019-03-11T02:39:13.223Z,6.43
2019-03-11T02:41:45.158Z,7.10
2019-03-11T02:44:18.270Z,7.10
2019-03-11T02:46:51.146Z,6.87
2019-03-11T02:49:23.088Z,6.90
2019-03-11T02:51:55.086Z,6.33
2019-03-11T02:54:26.863Z,6.30
2019-03-11T02:56:58.707Z,5.47
2019-03-11T02:59:32.335Z,5.37
2019-03-11T03:02:31.734Z,5.67
2019-03-11T03:05:19.634Z,6.03
2019-03-11T03:07:51.750Z,5.30
2019-03-11T03:10:23.811Z,5.53
2019-03-11T03:12:56.092Z,5.63
2019-03-11T03:15:27.811Z,6.00
2019-03-11T03:17:59.666Z,6.13
2019-03-11T03:20:31.604Z,6.57
2019-03-11T03:23:03.517Z,6.63
2019-03-11T03:25:36.577Z,6.70
2019-03-11T03:28:08.490Z,6.60
2019-03-11T03:30:41.536Z,6.27
2019-03-11T03:33:14.633Z,6.53
2019-03-11T03:35:46.779Z,6.83
2019-03-11T03:38:29.961Z,7.60
2019-03-11T03:40:52.575Z,6.53
2019-03-11T03:43:24.458Z,6.73
2019-03-11T03:45:56.270Z,7.17
2019-03-11T03:48:28.213Z,7.67
2019-03-11T03:51:00.360Z,7.67
2019-03-11T03:53:32.683Z,7.43
2019-03-11T03:56:04.610Z,7.30
2019-03-11T03:58:36.456Z,8.07
2019-03-11T04:01:08.630Z,8.43
2019-03-11T04:03:40.470Z,9.17
2019-03-11T04:06:12.394Z,10.40
2019-03-11T04:08:44.391Z,10.80
2019-03-11T04:11:16.230Z,10.63
2019-03-11T04:13:48.224Z,11.93
2019-03-11T04:16:20.061Z,11.20
2019-03-11T04:19:00.802Z,11.50
2019-03-11T04:21:33.078Z,11.37
2019-03-11T04:24:05.036Z,12.33
2019-03-11T04:26:37.619Z,11.93
2019-03-11T04:29:09.584Z,10.80
2019-03-11T04:31:41.614Z,11.43
2019-03-11T04:34:13.500Z,10.00
2019-03-11T04:36:45.328Z,11.30
2019-03-11T04:39:17.254Z,10.77
2019-03-11T04:41:49.139Z,10.27
2019-03-11T04:44:21.037Z,10.07
2019-03-11T04:46:53.249Z,10.57
2019-03-11T04:49:25.033Z,9.87
2019-03-11T04:51:56.800Z,10.27
2019-03-11T04:54:28.502Z,9.17
2019-03-11T04:57:00.413Z,9.87
2019-03-11T04:59:32.273Z,9.40
2019-03-11T05:02:04.182Z,10.67
2019-03-11T05:04:36.311Z,10.30
2019-03-11T05:07:08.061Z,9.13
2019-03-11T05:09:39.897Z,10.37
2019-03-11T05:12:11.833Z,10.57
2019-03-11T05:14:43.822Z,10.10
2019-03-11T05:17:15.762Z,9.83
2019-03-11T05:19:47.638Z,10.50
2019-03-11T05:22:19.719Z,10.10
2019-03-11T05:24:51.719Z,9.63
2019-03-11T05:27:23.671Z,10.33
2019-03-11T05:29:55.521Z,10.53
2019-03-11T05:32:27.691Z,9.67
2019-03-11T05:34:59.584Z,10.20
2019-03-11T05:37:31.572Z,10.10
2019-03-11T05:40:03.402Z,10.40
2019-03-11T05:42:35.965Z,9.10
2019-03-11T05:45:09.439Z,9.33
2019-03-11T05:47:41.360Z,8.90
2019-03-11T05:50:14.221Z,9.23
2019-03-11T05:52:46.281Z,9.67
2019-03-11T05:55:18.316Z,8.50
2019-03-11T05:57:50.215Z,7.60
2019-03-11T06:00:26.089Z,7.43
2019-03-11T06:02:58.021Z,7.43
2019-03-11T06:05:29.989Z,7.90
2019-03-11T06:08:02.923Z,6.80
2019-03-11T06:10:34.742Z,5.67
2019-03-11T06:13:07.159Z,5.60
2019-03-11T06:15:39.332Z,5.37
2019-03-11T06:18:11.646Z,5.83
2019-03-11T06:20:51.123Z,5.17
2019-03-11T06:23:23.095Z,5.60
2019-03-11T06:25:55.204Z,5.47
2019-03-11T06:28:27.118Z,5.23
2019-03-11T06:30:59.442Z,4.73
2019-03-11T06:33:31.247Z,5.43
2019-03-11T06:36:03.203Z,5.90
2019-03-11T06:38:35.351Z,8.07
2019-03-11T06:41:07.529Z,5.87
2019-03-11T06:43:39.626Z,5.67
2019-03-11T06:46:11.951Z,5.40
2019-03-11T06:48:44.538Z,6.10
2019-03-11T06:51:16.395Z,6.00
2019-03-11T06:53:48.286Z,5.10
2019-03-11T06:56:21.313Z,4.97
2019-03-11T06:58:53.289Z,5.30
2019-03-11T07:01:25.478Z,5.23
2019-03-11T07:03:57.811Z,5.80
2019-03-11T07:06:29.985Z,4.90
2019-03-11T07:09:02.222Z,5.83
2019-03-11T07:11:35.822Z,5.20
2019-03-11T07:14:07.741Z,5.43
2019-03-11T07:16:39.879Z,5.47
2019-03-11T07:19:12.008Z,5.63
2019-03-11T07:21:44.119Z,5.00
2019-03-11T07:24:16.171Z,5.07
2019-03-11T07:26:48.207Z,5.50
2019-03-11T07:29:21.154Z,5.43
2019-03-11T07:31:53.051Z,5.13
2019-03-11T07:34:25.229Z,5.47
2019-03-11T07:36:57.149Z,5.07
2019-03-11T07:39:29.190Z,4.50
2019-03-11T07:42:01.172Z,4.17
2019-03-11T07:44:33.012Z,4.00
2019-03-11T07:47:04.935Z,4.57
2019-03-11T07:49:37.204Z,4.60
2019-03-11T07:52:09.156Z,4.17
2019-03-11T07:54:41.114Z,4.37
2019-03-11T07:57:13.456Z,4.73
2019-03-11T07:59:45.487Z,3.97
2019-03-11T08:02:18.481Z,3.87
2019-03-11T08:04:50.693Z,3.43
2019-03-11T08:07:23.850Z,3.73
2019-03-11T08:09:56.774Z,3.03
2019-03-11T08:12:28.994Z,3.10
2019-03-11T08:15:00.862Z,3.43
2019-03-11T08:17:32.919Z,3.10
2019-03-11T08:20:05.209Z,2.80
2019-03-11T08:22:37.515Z,2.60
2019-03-11T08:25:09.785Z,2.67
2019-03-11T08:27:41.679Z,2.80
2019-03-11T08:30:14.250Z,3.60
2019-03-11T08:32:46.546Z,2.87
2019-03-11T08:35:19.842Z,3.10
2019-03-11T08:37:51.812Z,2.60
2019-03-11T08:40:23.720Z,2.60
2019-03-11T08:42:55.641Z,2.80
2019-03-11T08:45:27.502Z,3.00
2019-03-11T08:47:59.514Z,2.63
2019-03-11T08:50:31.586Z,2.67
2019-03-11T08:53:04.833Z,3.30
2019-03-11T08:55:36.852Z,2.93
2019-03-11T08:58:09.011Z,1.90
2019-03-11T09:00:40.969Z,2.10
2019-03-11T09:03:13.121Z,1.80
2019-03-11T09:05:45.006Z,2.03
2019-03-11T09:08:17.049Z,2.03
2019-03-11T09:10:48.998Z,1.80
2019-03-11T09:13:22.114Z,2.20
2019-03-11T09:15:54.041Z,4.00
2019-03-11T09:18:26.164Z,1.87
2019-03-11T09:20:58.119Z,2.10
2019-03-11T09:23:30.278Z,2.30
2019-03-11T09:26:02.285Z,1.77
2019-03-11T09:28:34.268Z,2.00
2019-03-11T09:31:06.295Z,1.67
2019-03-11T09:33:38.257Z,2.00
2019-03-11T09:36:10.206Z,2.07
2019-03-11T09:38:42.636Z,1.63
2019-03-11T09:41:14.648Z,2.00
2019-03-11T09:43:47.162Z,2.20
2019-03-11T09:46:19.125Z,1.60
2019-03-11T09:48:51.169Z,1.80
2019-03-11T09:51:22.884Z,1.90
2019-03-11T09:53:54.857Z,2.00
2019-03-11T09:56:26.778Z,1.50
2019-03-11T09:58:58.746Z,1.97
2019-03-11T10:01:30.681Z,2.00
2019-03-11T10:04:02.814Z,1.83
2019-03-11T10:06:34.774Z,1.50
2019-03-11T10:09:08.486Z,1.80
2019-03-11T10:11:41.547Z,1.83
2019-03-11T10:14:13.443Z,1.70
2019-03-11T10:16:45.242Z,1.70
2019-03-11T10:19:16.856Z,2.03
2019-03-11T10:21:50.121Z,2.03
2019-03-11T10:24:22.137Z,2.10
2019-03-11T10:26:54.514Z,2.40
2019-03-11T10:29:26.751Z,1.97
2019-03-11T10:31:58.714Z,2.87
2019-03-11T10:34:30.620Z,2.10
2019-03-11T10:37:03.744Z,2.20
2019-03-11T10:39:35.763Z,1.80
2019-03-11T10:42:07.590Z,2.07
2019-03-11T10:44:39.539Z,2.00
2019-03-11T10:47:11.529Z,2.30
2019-03-11T10:49:43.522Z,1.90
2019-03-11T10:52:15.278Z,2.00
2019-03-11T10:54:47.230Z,2.23
2019-03-11T10:57:19.298Z,1.90
2019-03-11T10:59:52.249Z,2.03
2019-03-11T11:02:24.471Z,2.33
2019-03-11T11:04:56.571Z,2.17
2019-03-11T11:07:28.281Z,2.37
2019-03-11T11:10:00.241Z,1.93
2019-03-11T11:12:33.584Z,2.40
2019-03-11T11:15:06.849Z,2.30
2019-03-11T11:17:38.739Z,2.00
2019-03-11T11:20:11.461Z,2.27
2019-03-11T11:22:43.451Z,2.43
2019-03-11T11:25:17.627Z,2.40
2019-03-11T11:27:49.534Z,2.73
2019-03-11T11:30:22.784Z,2.47
2019-03-11T11:32:55.157Z,2.10
2019-03-11T11:35:27.118Z,2.30
2019-03-11T11:37:59.005Z,2.30
2019-03-11T11:40:31.111Z,2.83
2019-03-11T11:43:03.199Z,2.93
2019-03-11T11:45:35.126Z,2.60
2019-03-11T11:48:08.384Z,3.77
2019-03-11T11:50:40.551Z,3.60
2019-03-11T11:53:12.589Z,3.67
2019-03-11T11:55:44.550Z,4.20
2019-03-11T11:58:16.450Z,3.90
2019-03-11T12:00:50.034Z,3.47
2019-03-11T12:03:21.801Z,3.73
2019-03-11T12:05:53.620Z,3.80
2019-03-11T12:08:25.542Z,3.87
2019-03-11T12:10:57.488Z,4.20
2019-03-11T12:13:29.410Z,4.33
2019-03-11T12:16:01.592Z,3.60
2019-03-11T12:18:34.910Z,4.07
2019-03-11T12:21:07.678Z,4.43
2019-03-11T12:23:46.435Z,4.57
2019-03-11T12:26:13.139Z,4.00
2019-03-11T12:28:45.070Z,4.17
2019-03-11T12:31:17.040Z,4.07
2019-03-11T12:33:49.013Z,4.10
2019-03-11T12:36:21.269Z,4.20
2019-03-11T12:38:53.457Z,3.97
2019-03-11T12:41:25.574Z,5.07
2019-03-11T12:43:57.490Z,4.47
2019-03-11T12:46:29.382Z,3.70
2019-03-11T12:49:01.364Z,4.17
2019-03-11T12:51:33.582Z,4.37
2019-03-11T12:54:06.531Z,4.23
2019-03-11T12:56:38.814Z,4.20
2019-03-11T12:59:10.654Z,4.17
2019-03-11T13:01:42.719Z,3.83
2019-03-11T13:04:14.740Z,3.63
2019-03-11T13:06:46.853Z,3.83
2019-03-11T13:09:18.811Z,4.00
2019-03-11T13:11:50.670Z,3.80
2019-03-11T13:14:24.109Z,3.63
2019-03-11T13:16:56.293Z,3.33
2019-03-11T13:19:28.226Z,4.30
2019-03-11T13:22:00.286Z,3.80
2019-03-11T13:24:32.279Z,4.13
2019-03-11T13:27:04.310Z,3.67
2019-03-11T13:29:36.179Z,4.20
2019-03-11T13:32:08.257Z,4.73
2019-03-11T13:34:40.972Z,4.17
2019-03-11T13:37:12.913Z,4.07
2019-03-11T13:39:44.885Z,3.70
2019-03-11T13:42:16.682Z,4.17
2019-03-11T13:44:48.671Z,3.87
2019-03-11T13:47:20.592Z,4.20
2019-03-11T13:49:52.566Z,4.03
2019-03-11T13:52:25.532Z,4.00
2019-03-11T13:54:57.467Z,4.07
2019-03-11T13:57:29.345Z,3.77
2019-03-11T14:00:01.596Z,3.77
2019-03-11T14:02:34.604Z,3.87
2019-03-11T14:05:06.718Z,3.80
2019-03-11T14:07:38.863Z,4.47
2019-03-11T14:10:10.789Z,4.13
2019-03-11T14:12:43.097Z,4.30
2019-03-11T14:15:15.074Z,4.30
2019-03-11T14:17:47.111Z,4.07
2019-03-11T14:20:19.103Z,4.27
2019-03-11T14:22:51.291Z,4.37
2019-03-11T14:25:23.147Z,4.17
2019-03-11T14:27:55.112Z,4.33
2019-03-11T14:30:27.111Z,3.87
2019-03-11T14:32:59.135Z,4.43
2019-03-11T14:35:30.954Z,4.60
2019-03-11T14:38:03.282Z,5.40
2019-03-11T14:40:36.186Z,4.83
2019-03-11T14:43:08.232Z,4.67
2019-03-11T14:45:40.727Z,4.67
2019-03-11T14:48:12.775Z,4.93
2019-03-11T14:50:44.779Z,5.20
2019-03-11T14:53:17.225Z,4.77
2019-03-11T14:55:49.289Z,4.30
2019-03-11T14:58:29.073Z,4.70
2019-03-11T15:00:54.778Z,4.70
2019-03-11T15:03:26.800Z,4.83
2019-03-11T15:05:58.776Z,4.80
2019-03-11T15:08:30.825Z,4.37
2019-03-11T15:11:02.701Z,4.30
2019-03-11T15:13:34.766Z,4.47
2019-03-11T15:16:07.506Z,5.07
2019-03-11T15:18:39.466Z,5.03
2019-03-11T15:21:11.597Z,4.67
2019-03-11T15:23:43.834Z,4.97
2019-03-11T15:26:24.643Z,4.77
2019-03-11T15:28:49.456Z,4.40
2019-03-11T15:31:22.697Z,3.97
2019-03-11T15:33:54.651Z,4.50
2019-03-11T15:36:33.361Z,4.10
2019-03-11T15:39:00.003Z,3.93
2019-03-11T15:41:31.880Z,3.67
2019-03-11T15:44:03.978Z,4.10
2019-03-11T15:46:39.451Z,4.00
2019-03-11T15:49:09.895Z,4.40
2019-03-11T15:51:41.886Z,3.93
2019-03-11T15:54:19.044Z,3.77
2019-03-11T15:56:51.462Z,3.83
2019-03-11T15:59:23.464Z,4.10
2019-03-11T16:01:55.619Z,4.30
2019-03-11T16:04:27.947Z,4.03
2019-03-11T16:06:59.821Z,4.23
2019-03-11T16:09:31.677Z,4.30
2019-03-11T16:12:03.666Z,5.67
2019-03-11T16:14:35.784Z,5.47
2019-03-11T16:17:07.944Z,3.83
2019-03-11T16:19:40.354Z,3.77
2019-03-11T16:22:23.008Z,4.63
2019-03-11T16:24:47.204Z,4.00
2019-03-11T16:27:19.249Z,3.83
2019-03-11T16:29:51.375Z,4.73
2019-03-11T16:32:23.294Z,4.83
2019-03-11T16:34:55.329Z,5.80
2019-03-11T16:37:27.355Z,5.83
2019-03-11T16:39:59.213Z,6.10
2019-03-11T16:42:31.495Z,5.90
2019-03-11T16:45:03.554Z,6.10
2019-03-11T16:47:36.051Z,6.43
2019-03-11T16:50:09.582Z,6.50
2019-03-11T16:52:41.676Z,5.53
2019-03-11T16:55:16.582Z,5.87
2019-03-11T16:57:48.478Z,6.83
2019-03-11T17:00:24.861Z,6.60
2019-03-11T17:02:56.941Z,6.50
2019-03-11T17:05:28.969Z,7.47
2019-03-11T17:08:00.789Z,7.17
2019-03-11T17:10:33.270Z,7.37
2019-03-11T17:13:05.206Z,7.00
2019-03-11T17:15:37.118Z,7.63
2019-03-11T17:18:09.007Z,7.87
2019-03-11T17:20:40.801Z,8.27
2019-03-11T17:23:12.746Z,8.93
2019-03-11T17:25:44.488Z,8.23
2019-03-11T17:28:16.365Z,8.40
2019-03-11T17:30:48.208Z,8.17
2019-03-11T17:33:20.369Z,9.80
2019-03-11T17:35:52.141Z,9.43
2019-03-11T17:38:24.001Z,9.90
2019-03-11T17:40:55.836Z,10.03
2019-03-11T17:43:27.779Z,10.23
2019-03-11T17:45:59.486Z,12.13
2019-03-11T17:48:31.341Z,13.43
2019-03-11T17:51:03.417Z,14.00
2019-03-11T17:53:35.331Z,15.37
2019-03-11T17:56:07.446Z,13.60
2019-03-11T17:58:39.360Z,13.03
2019-03-11T18:01:11.358Z,12.17
2019-03-11T18:03:43.228Z,11.87
2019-03-11T18:06:15.180Z,12.43
2019-03-11T18:08:47.088Z,11.57
2019-03-11T18:11:19.039Z,11.50
2019-03-11T18:13:50.798Z,9.87
2019-03-11T18:16:22.488Z,9.47
2019-03-11T18:18:54.858Z,9.63
2019-03-11T18:21:26.888Z,9.77
2019-03-11T18:23:58.839Z,9.20
2019-03-11T18:26:30.763Z,10.07
2019-03-11T18:29:02.684Z,9.37
2019-03-11T18:31:35.050Z,9.90
2019-03-11T18:34:07.226Z,9.90
2019-03-11T18:36:39.295Z,9.53
2019-03-11T18:39:11.588Z,10.10
2019-03-11T18:41:43.730Z,9.83
2019-03-11T18:44:16.078Z,11.50
2019-03-11T18:46:48.370Z,10.70
2019-03-11T18:49:20.409Z,12.67
2019-03-11T18:51:52.468Z,11.23
2019-03-11T18:54:24.587Z,11.40
2019-03-11T18:56:57.459Z,11.57
2019-03-11T18:59:29.436Z,13.77
2019-03-11T19:02:01.689Z,13.83
2019-03-11T19:04:35.020Z,13.73
2019-03-11T19:07:07.094Z,13.53
2019-03-11T19:09:39.082Z,13.73
2019-03-11T19:12:11.088Z,13.60
2019-03-11T19:14:43.038Z,12.73
2019-03-11T19:17:14.955Z,12.53
2019-03-11T19:19:47.153Z,11.33
2019-03-11T19:22:19.041Z,11.40
2019-03-11T19:24:51.234Z,11.60
2019-03-11T19:27:23.978Z,10.30
2019-03-11T19:29:55.981Z,11.47
2019-03-11T19:32:27.721Z,10.43
2019-03-11T19:34:59.554Z,11.33
2019-03-11T19:37:31.202Z,12.03
2019-03-11T19:40:03.949Z,12.93
2019-03-11T19:42:36.157Z,13.63
2019-03-11T19:45:08.671Z,13.80
2019-03-11T19:47:40.534Z,14.40
2019-03-11T19:50:13.348Z,16.40
2019-03-11T19:52:57.663Z,15.67
2019-03-11T19:55:26.296Z,16.27
2019-03-11T19:57:59.715Z,16.20
2019-03-11T20:00:33.302Z,16.40
2019-03-11T20:03:05.588Z,16.80
2019-03-11T20:05:37.523Z,16.43
2019-03-11T20:08:09.471Z,16.23
2019-03-11T20:10:41.353Z,15.63
2019-03-11T20:13:13.335Z,16.20
2019-03-11T20:15:45.306Z,16.43
2019-03-11T20:18:17.395Z,16.17
2019-03-11T20:20:50.664Z,16.10
2019-03-11T20:23:22.683Z,17.53
2019-03-11T20:25:54.689Z,17.40
2019-03-11T20:28:26.655Z,16.43
2019-03-11T20:30:58.642Z,17.23
2019-03-11T20:33:30.569Z,16.97
2019-03-11T20:36:02.386Z,18.03
2019-03-11T20:38:35.123Z,17.40
2019-03-11T20:41:07.120Z,17.40
2019-03-11T20:43:39.638Z,18.33
2019-03-11T20:46:11.435Z,18.23
2019-03-11T20:48:43.192Z,18.20
2019-03-11T20:51:15.153Z,18.60
2019-03-11T20:53:46.898Z,18.13
2019-03-11T20:56:18.909Z,17.93
2019-03-11T20:58:50.976Z,18.97
2019-03-11T21:01:22.872Z,18.17
2019-03-11T21:03:54.703Z,18.83
2019-03-11T21:06:26.618Z,18.57
2019-03-11T21:08:58.234Z,18.60
2019-03-11T21:11:30.161Z,18.97
2019-03-11T21:14:01.924Z,19.23
2019-03-11T21:16:34.060Z,18.70
2019-03-11T21:19:06.199Z,19.80
2019-03-11T21:21:38.157Z,18.50
2019-03-11T21:24:22.469Z,21.90
2019-03-11T21:26:54.337Z,19.67
2019-03-11T21:29:26.298Z,19.03
2019-03-11T21:31:58.254Z,18.03
2019-03-11T21:34:30.142Z,18.77
2019-03-11T21:37:02.251Z,18.60
2019-03-11T21:39:35.365Z,18.97
2019-03-11T21:42:07.361Z,19.60
2019-03-11T21:44:39.265Z,18.77
2019-03-11T21:47:11.110Z,17.77
2019-03-11T21:49:43.013Z,19.53
2019-03-11T21:52:15.079Z,18.57
2019-03-11T21:54:47.605Z,17.97
2019-03-11T21:57:19.979Z,18.40
2019-03-11T21:59:52.419Z,19.10
2019-03-11T22:02:24.576Z,18.70
2019-03-11T22:04:56.445Z,19.53
2019-03-11T22:07:28.295Z,19.20
2019-03-11T22:10:00.377Z,18.87
2019-03-11T22:12:32.553Z,18.97
2019-03-11T22:15:04.729Z,19.47
2019-03-11T22:17:37.218Z,19.63
2019-03-11T22:20:10.917Z,19.40
2019-03-11T22:22:43.134Z,20.17
2019-03-11T22:25:15.473Z,19.87
2019-03-11T22:27:47.451Z,18.87
2019-03-11T22:30:20.714Z,19.37
2019-03-11T22:32:52.689Z,19.47
2019-03-11T22:35:24.799Z,19.03
2019-03-11T22:37:56.594Z,19.53
2019-03-11T22:40:28.796Z,20.77
2019-03-11T22:43:00.824Z,19.33
2019-03-11T22:45:32.819Z,21.50
2019-03-11T22:48:04.861Z,20.70
2019-03-11T22:50:37.263Z,21.73
2019-03-11T22:53:09.220Z,21.10
2019-03-11T22:55:41.110Z,21.00
2019-03-11T22:58:13.119Z,20.67
2019-03-11T23:01:01.020Z,20.53
2019-03-11T23:03:34.099Z,21.00
2019-03-11T23:06:06.086Z,20.70
2019-03-11T23:08:37.800Z,21.37
2019-03-11T23:11:09.858Z,22.40
2019-03-11T23:13:42.025Z,21.97
2019-03-11T23:16:14.018Z,22.97
2019-03-11T23:18:46.044Z,23.20
2019-03-11T23:21:18.173Z,22.10
2019-03-11T23:23:50.143Z,22.93
2019-03-11T23:26:22.154Z,21.63
2019-03-11T23:28:54.433Z,23.87
2019-03-11T23:31:26.546Z,23.13
2019-03-11T23:33:58.554Z,24.10
2019-03-11T23:36:30.607Z,22.70
2019-03-11T23:39:02.545Z,22.60
2019-03-11T23:41:36.171Z,22.77
2019-03-11T23:44:08.160Z,22.03
2019-03-11T23:46:40.408Z,21.87
2019-03-11T23:49:12.574Z,20.63
2019-03-11T23:51:44.738Z,22.83
2019-03-11T23:54:16.824Z,20.17
2019-03-11T23:56:48.766Z,20.57
2019-03-11T23:59:20.838Z,20.63
